sensor_id;sensor_type;location;lat;lon;timestamp;P1;durP1;ratioP1;P2;durP2;ratioP2
13704;SDS011;6924;52.122;9.952;2023-09-18T00:01:34;3.90;;;3.27;;
13704;SDS011;6924;52.122;9.952;2023-09-18T00:04:00;4.03;;;2.87;;
13704;SDS011;6924;52.122;9.952;2023-09-18T00:06:27;3.57;;;3.27;;
13704;SDS011;6924;52.122;9.952;2023-09-18T00:08:55;4.30;;;3.93;;
13704;SDS011;6924;52.122;9.952;2023-09-18T00:11:21;3.60;;;3.30;;
13704;SDS011;6924;52.122;9.952;2023-09-18T00:13:48;3.33;;;3.13;;
13704;SDS011;6924;52.122;9.952;2023-09-18T00:16:14;5.27;;;3.27;;
13704;SDS011;6924;52.122;9.952;2023-09-18T00:18:42;3.50;;;3.20;;
13704;SDS011;6924;52.122;9.952;2023-09-18T00:21:09;4.00;;;3.70;;
13704;SDS011;6924;52.122;9.952;2023-09-18T00:23:36;4.23;;;3.50;;
13704;SDS011;6924;52.122;9.952;2023-09-18T00:26:02;3.83;;;3.53;;
13704;SDS011;6924;52.122;9.952;2023-09-18T00:28:29;4.67;;;3.47;;
13704;SDS011;6924;52.122;9.952;2023-09-18T00:30:56;4.07;;;3.70;;
13704;SDS011;6924;52.122;9.952;2023-09-18T00:33:22;3.87;;;3.30;;
13704;SDS011;6924;52.122;9.952;2023-09-18T00:35:50;3.10;;;2.70;;
13704;SDS011;6924;52.122;9.952;2023-09-18T00:38:18;3.63;;;3.33;;
13704;SDS011;6924;52.122;9.952;2023-09-18T00:40:44;4.97;;;3.43;;
13704;SDS011;6924;52.122;9.952;2023-09-18T00:43:11;4.53;;;3.27;;
13704;SDS011;6924;52.122;9.952;2023-09-18T00:45:38;4.10;;;3.80;;
13704;SDS011;6924;52.122;9.952;2023-09-18T00:48:07;3.60;;;3.40;;
13704;SDS011;6924;52.122;9.952;2023-09-18T00:50:33;4.03;;;3.63;;
13704;SDS011;6924;52.122;9.952;2023-09-18T00:53:02;4.83;;;3.43;;
13704;SDS011;6924;52.122;9.952;2023-09-18T00:55:29;3.93;;;2.90;;
13704;SDS011;6924;52.122;9.952;2023-09-18T00:57:57;3.47;;;3.17;;
13704;SDS011;6924;52.122;9.952;2023-09-18T01:00:24;3.60;;;3.30;;
13704;SDS011;6924;52.122;9.952;2023-09-18T01:02:51;4.43;;;4.03;;
13704;SDS011;6924;52.122;9.952;2023-09-18T01:05:17;3.50;;;3.20;;
13704;SDS011;6924;52.122;9.952;2023-09-18T01:07:45;3.10;;;2.87;;
13704;SDS011;6924;52.122;9.952;2023-09-18T01:10:13;5.60;;;3.07;;
13704;SDS011;6924;52.122;9.952;2023-09-18T01:12:44;3.03;;;2.80;;
13704;SDS011;6924;52.122;9.952;2023-09-18T01:15:15;3.70;;;3.27;;
13704;SDS011;6924;52.122;9.952;2023-09-18T01:17:51;3.20;;;2.90;;
13704;SDS011;6924;52.122;9.952;2023-09-18T01:20:17;5.70;;;3.30;;
13704;SDS011;6924;52.122;9.952;2023-09-18T01:22:45;3.30;;;3.10;;
13704;SDS011;6924;52.122;9.952;2023-09-18T01:25:14;3.10;;;2.90;;
13704;SDS011;6924;52.122;9.952;2023-09-18T01:27:41;3.17;;;2.90;;
13704;SDS011;6924;52.122;9.952;2023-09-18T01:30:08;4.67;;;3.30;;
13704;SDS011;6924;52.122;9.952;2023-09-18T01:32:35;3.67;;;3.37;;
13704;SDS011;6924;52.122;9.952;2023-09-18T01:35:04;4.03;;;3.70;;
13704;SDS011;6924;52.122;9.952;2023-09-18T01:37:32;3.67;;;3.37;;
13704;SDS011;6924;52.122;9.952;2023-09-18T01:40:02;3.60;;;3.30;;
13704;SDS011;6924;52.122;9.952;2023-09-18T01:42:31;3.37;;;3.10;;
13704;SDS011;6924;52.122;9.952;2023-09-18T01:44:59;4.33;;;3.13;;
13704;SDS011;6924;52.122;9.952;2023-09-18T01:47:25;3.30;;;3.10;;
13704;SDS011;6924;52.122;9.952;2023-09-18T01:49:52;3.67;;;3.37;;
13704;SDS011;6924;52.122;9.952;2023-09-18T01:52:19;2.90;;;2.70;;
13704;SDS011;6924;52.122;9.952;2023-09-18T01:54:46;3.37;;;3.07;;
13704;SDS011;6924;52.122;9.952;2023-09-18T01:57:14;4.13;;;3.53;;
13704;SDS011;6924;52.122;9.952;2023-09-18T01:59:40;3.93;;;3.63;;
13704;SDS011;6924;52.122;9.952;2023-09-18T02:02:07;3.20;;;3.00;;
13704;SDS011;6924;52.122;9.952;2023-09-18T02:04:34;3.50;;;3.20;;
13704;SDS011;6924;52.122;9.952;2023-09-18T02:07:01;4.10;;;3.07;;
13704;SDS011;6924;52.122;9.952;2023-09-18T02:09:28;3.30;;;3.00;;
13704;SDS011;6924;52.122;9.952;2023-09-18T02:11:54;3.37;;;3.17;;
13704;SDS011;6924;52.122;9.952;2023-09-18T02:14:22;2.97;;;2.70;;
13704;SDS011;6924;52.122;9.952;2023-09-18T02:16:48;3.23;;;2.97;;
13704;SDS011;6924;52.122;9.952;2023-09-18T02:19:16;3.63;;;3.33;;
13704;SDS011;6924;52.122;9.952;2023-09-18T02:21:45;3.43;;;3.13;;
13704;SDS011;6924;52.122;9.952;2023-09-18T02:24:11;4.47;;;3.10;;
13704;SDS011;6924;52.122;9.952;2023-09-18T02:26:38;5.33;;;3.80;;
13704;SDS011;6924;52.122;9.952;2023-09-18T02:29:05;3.50;;;3.20;;
13704;SDS011;6924;52.122;9.952;2023-09-18T02:31:36;3.60;;;3.30;;
13704;SDS011;6924;52.122;9.952;2023-09-18T02:34:03;3.77;;;3.40;;
13704;SDS011;6924;52.122;9.952;2023-09-18T02:36:29;3.50;;;3.20;;
13704;SDS011;6924;52.122;9.952;2023-09-18T02:38:56;3.20;;;3.00;;
13704;SDS011;6924;52.122;9.952;2023-09-18T02:41:22;3.47;;;3.17;;
13704;SDS011;6924;52.122;9.952;2023-09-18T02:43:49;3.80;;;3.50;;
13704;SDS011;6924;52.122;9.952;2023-09-18T02:46:15;3.53;;;3.23;;
13704;SDS011;6924;52.122;9.952;2023-09-18T02:48:43;3.73;;;3.43;;
13704;SDS011;6924;52.122;9.952;2023-09-18T02:51:09;3.37;;;3.17;;
13704;SDS011;6924;52.122;9.952;2023-09-18T02:53:36;3.20;;;3.00;;
13704;SDS011;6924;52.122;9.952;2023-09-18T02:56:03;3.57;;;3.27;;
13704;SDS011;6924;52.122;9.952;2023-09-18T02:58:29;3.70;;;3.40;;
13704;SDS011;6924;52.122;9.952;2023-09-18T03:00:56;3.70;;;3.30;;
13704;SDS011;6924;52.122;9.952;2023-09-18T03:03:24;6.93;;;3.30;;
13704;SDS011;6924;52.122;9.952;2023-09-18T03:05:53;3.70;;;3.40;;
13704;SDS011;6924;52.122;9.952;2023-09-18T03:08:19;3.63;;;3.33;;
13704;SDS011;6924;52.122;9.952;2023-09-18T03:10:45;3.80;;;3.50;;
13704;SDS011;6924;52.122;9.952;2023-09-18T03:13:12;4.13;;;3.30;;
13704;SDS011;6924;52.122;9.952;2023-09-18T03:15:44;3.70;;;3.40;;
13704;SDS011;6924;52.122;9.952;2023-09-18T03:18:11;2.90;;;2.70;;
13704;SDS011;6924;52.122;9.952;2023-09-18T03:20:37;5.27;;;3.37;;
13704;SDS011;6924;52.122;9.952;2023-09-18T03:23:05;4.63;;;3.77;;
13704;SDS011;6924;52.122;9.952;2023-09-18T03:25:32;3.23;;;2.93;;
13704;SDS011;6924;52.122;9.952;2023-09-18T03:27:58;3.57;;;3.27;;
13704;SDS011;6924;52.122;9.952;2023-09-18T03:30:25;3.73;;;3.43;;
13704;SDS011;6924;52.122;9.952;2023-09-18T03:32:52;3.40;;;3.10;;
13704;SDS011;6924;52.122;9.952;2023-09-18T03:35:19;3.80;;;3.50;;
13704;SDS011;6924;52.122;9.952;2023-09-18T03:37:46;3.80;;;3.50;;
13704;SDS011;6924;52.122;9.952;2023-09-18T03:40:14;4.23;;;3.60;;
13704;SDS011;6924;52.122;9.952;2023-09-18T03:42:42;3.57;;;3.27;;
13704;SDS011;6924;52.122;9.952;2023-09-18T03:45:08;4.10;;;3.80;;
13704;SDS011;6924;52.122;9.952;2023-09-18T03:47:36;3.30;;;3.00;;
13704;SDS011;6924;52.122;9.952;2023-09-18T03:50:04;3.93;;;3.60;;
13704;SDS011;6924;52.122;9.952;2023-09-18T03:52:32;3.40;;;3.20;;
13704;SDS011;6924;52.122;9.952;2023-09-18T03:54:58;3.87;;;3.43;;
13704;SDS011;6924;52.122;9.952;2023-09-18T03:57:26;4.80;;;4.17;;
13704;SDS011;6924;52.122;9.952;2023-09-18T03:59:52;3.63;;;3.13;;
13704;SDS011;6924;52.122;9.952;2023-09-18T04:02:20;3.37;;;3.17;;
13704;SDS011;6924;52.122;9.952;2023-09-18T04:04:47;3.80;;;3.50;;
13704;SDS011;6924;52.122;9.952;2023-09-18T04:07:14;3.83;;;3.63;;
13704;SDS011;6924;52.122;9.952;2023-09-18T04:09:41;3.10;;;2.90;;
13704;SDS011;6924;52.122;9.952;2023-09-18T04:12:08;3.73;;;3.37;;
13704;SDS011;6924;52.122;9.952;2023-09-18T04:14:36;3.93;;;3.63;;
13704;SDS011;6924;52.122;9.952;2023-09-18T04:17:03;4.33;;;3.57;;
13704;SDS011;6924;52.122;9.952;2023-09-18T04:19:29;4.33;;;3.93;;
13704;SDS011;6924;52.122;9.952;2023-09-18T04:21:56;3.67;;;3.37;;
13704;SDS011;6924;52.122;9.952;2023-09-18T04:24:23;3.57;;;3.27;;
13704;SDS011;6924;52.122;9.952;2023-09-18T04:26:49;4.17;;;3.80;;
13704;SDS011;6924;52.122;9.952;2023-09-18T04:29:16;4.13;;;3.77;;
13704;SDS011;6924;52.122;9.952;2023-09-18T04:31:45;3.77;;;3.47;;
13704;SDS011;6924;52.122;9.952;2023-09-18T04:34:12;4.10;;;3.80;;
13704;SDS011;6924;52.122;9.952;2023-09-18T04:36:38;3.83;;;3.60;;
13704;SDS011;6924;52.122;9.952;2023-09-18T04:39:05;3.60;;;3.40;;
13704;SDS011;6924;52.122;9.952;2023-09-18T04:41:31;3.77;;;3.47;;
13704;SDS011;6924;52.122;9.952;2023-09-18T04:43:58;4.17;;;3.63;;
13704;SDS011;6924;52.122;9.952;2023-09-18T04:46:25;4.40;;;4.10;;
13704;SDS011;6924;52.122;9.952;2023-09-18T04:48:53;4.20;;;3.90;;
13704;SDS011;6924;52.122;9.952;2023-09-18T04:51:19;4.33;;;3.93;;
13704;SDS011;6924;52.122;9.952;2023-09-18T04:53:46;6.43;;;3.40;;
13704;SDS011;6924;52.122;9.952;2023-09-18T04:56:12;4.00;;;3.70;;
13704;SDS011;6924;52.122;9.952;2023-09-18T04:58:39;3.90;;;3.53;;
13704;SDS011;6924;52.122;9.952;2023-09-18T05:01:06;3.97;;;3.67;;
13704;SDS011;6924;52.122;9.952;2023-09-18T05:03:33;3.63;;;3.43;;
13704;SDS011;6924;52.122;9.952;2023-09-18T05:06:01;5.23;;;4.10;;
13704;SDS011;6924;52.122;9.952;2023-09-18T05:08:28;4.73;;;4.33;;
13704;SDS011;6924;52.122;9.952;2023-09-18T05:10:56;3.70;;;3.50;;
13704;SDS011;6924;52.122;9.952;2023-09-18T05:13:23;4.47;;;3.77;;
13704;SDS011;6924;52.122;9.952;2023-09-18T05:15:49;3.77;;;3.47;;
13704;SDS011;6924;52.122;9.952;2023-09-18T05:18:16;3.80;;;3.50;;
13704;SDS011;6924;52.122;9.952;2023-09-18T05:20:42;3.97;;;3.70;;
13704;SDS011;6924;52.122;9.952;2023-09-18T05:23:10;4.43;;;4.13;;
13704;SDS011;6924;52.122;9.952;2023-09-18T05:25:37;4.03;;;3.73;;
13704;SDS011;6924;52.122;9.952;2023-09-18T05:28:04;3.77;;;3.47;;
13704;SDS011;6924;52.122;9.952;2023-09-18T05:30:31;3.53;;;3.23;;
13704;SDS011;6924;52.122;9.952;2023-09-18T05:32:59;3.20;;;3.00;;
13704;SDS011;6924;52.122;9.952;2023-09-18T05:35:29;3.23;;;3.00;;
13704;SDS011;6924;52.122;9.952;2023-09-18T05:37:56;3.13;;;2.93;;
13704;SDS011;6924;52.122;9.952;2023-09-18T05:40:25;3.33;;;3.03;;
13704;SDS011;6924;52.122;9.952;2023-09-18T05:42:53;3.43;;;3.23;;
13704;SDS011;6924;52.122;9.952;2023-09-18T05:45:20;3.77;;;3.33;;
13704;SDS011;6924;52.122;9.952;2023-09-18T05:47:47;3.30;;;3.10;;
13704;SDS011;6924;52.122;9.952;2023-09-18T05:50:14;2.97;;;2.77;;
13704;SDS011;6924;52.122;9.952;2023-09-18T05:52:41;3.90;;;3.60;;
13704;SDS011;6924;52.122;9.952;2023-09-18T05:55:09;3.30;;;3.10;;
13704;SDS011;6924;52.122;9.952;2023-09-18T05:57:37;3.40;;;3.17;;
13704;SDS011;6924;52.122;9.952;2023-09-18T06:00:04;3.00;;;2.80;;
13704;SDS011;6924;52.122;9.952;2023-09-18T06:02:31;3.10;;;2.90;;
13704;SDS011;6924;52.122;9.952;2023-09-18T06:04:58;3.63;;;3.43;;
13704;SDS011;6924;52.122;9.952;2023-09-18T06:07:26;3.53;;;3.23;;
13704;SDS011;6924;52.122;9.952;2023-09-18T06:09:53;3.17;;;2.87;;
13704;SDS011;6924;52.122;9.952;2023-09-18T06:12:19;3.20;;;2.93;;
13704;SDS011;6924;52.122;9.952;2023-09-18T06:14:48;3.10;;;2.90;;
13704;SDS011;6924;52.122;9.952;2023-09-18T06:17:14;4.87;;;3.17;;
13704;SDS011;6924;52.122;9.952;2023-09-18T06:19:41;3.10;;;2.90;;
13704;SDS011;6924;52.122;9.952;2023-09-18T06:22:08;3.20;;;2.90;;
13704;SDS011;6924;52.122;9.952;2023-09-18T06:24:35;5.13;;;2.97;;
13704;SDS011;6924;52.122;9.952;2023-09-18T06:27:02;3.00;;;2.80;;
13704;SDS011;6924;52.122;9.952;2023-09-18T06:29:29;3.10;;;2.57;;
13704;SDS011;6924;52.122;9.952;2023-09-18T06:31:57;4.67;;;2.93;;
13704;SDS011;6924;52.122;9.952;2023-09-18T06:34:23;3.03;;;2.80;;
13704;SDS011;6924;52.122;9.952;2023-09-18T06:36:50;3.70;;;3.33;;
13704;SDS011;6924;52.122;9.952;2023-09-18T06:39:17;2.90;;;2.70;;
13704;SDS011;6924;52.122;9.952;2023-09-18T06:41:45;5.17;;;2.63;;
13704;SDS011;6924;52.122;9.952;2023-09-18T06:44:11;2.70;;;2.50;;
13704;SDS011;6924;52.122;9.952;2023-09-18T06:46:38;3.30;;;3.00;;
13704;SDS011;6924;52.122;9.952;2023-09-18T06:49:07;2.77;;;2.57;;
13704;SDS011;6924;52.122;9.952;2023-09-18T06:51:33;3.07;;;2.80;;
13704;SDS011;6924;52.122;9.952;2023-09-18T06:54:00;2.90;;;2.70;;
13704;SDS011;6924;52.122;9.952;2023-09-18T06:56:27;3.43;;;3.17;;
13704;SDS011;6924;52.122;9.952;2023-09-18T06:58:54;4.50;;;2.57;;
13704;SDS011;6924;52.122;9.952;2023-09-18T07:01:20;2.70;;;2.50;;
13704;SDS011;6924;52.122;9.952;2023-09-18T07:03:49;2.80;;;2.60;;
13704;SDS011;6924;52.122;9.952;2023-09-18T07:06:17;2.80;;;2.60;;
13704;SDS011;6924;52.122;9.952;2023-09-18T07:08:45;2.67;;;2.47;;
13704;SDS011;6924;52.122;9.952;2023-09-18T07:11:12;4.17;;;3.30;;
13704;SDS011;6924;52.122;9.952;2023-09-18T07:13:38;3.37;;;3.07;;
13704;SDS011;6924;52.122;9.952;2023-09-18T07:16:05;2.43;;;2.23;;
13704;SDS011;6924;52.122;9.952;2023-09-18T07:18:32;3.10;;;2.90;;
13704;SDS011;6924;52.122;9.952;2023-09-18T07:20:59;2.87;;;2.67;;
13704;SDS011;6924;52.122;9.952;2023-09-18T07:23:27;2.90;;;2.70;;
13704;SDS011;6924;52.122;9.952;2023-09-18T07:25:53;3.00;;;2.53;;
13704;SDS011;6924;52.122;9.952;2023-09-18T07:28:20;3.23;;;2.93;;
13704;SDS011;6924;52.122;9.952;2023-09-18T07:30:47;2.80;;;2.60;;
13704;SDS011;6924;52.122;9.952;2023-09-18T07:33:13;2.83;;;2.50;;
13704;SDS011;6924;52.122;9.952;2023-09-18T07:35:42;2.93;;;2.63;;
13704;SDS011;6924;52.122;9.952;2023-09-18T07:38:12;3.17;;;2.93;;
13704;SDS011;6924;52.122;9.952;2023-09-18T07:40:40;2.83;;;2.47;;
13704;SDS011;6924;52.122;9.952;2023-09-18T07:43:07;3.60;;;2.37;;
13704;SDS011;6924;52.122;9.952;2023-09-18T07:45:33;3.30;;;2.33;;
13704;SDS011;6924;52.122;9.952;2023-09-18T07:48:00;3.13;;;2.93;;
13704;SDS011;6924;52.122;9.952;2023-09-18T07:50:26;2.93;;;2.60;;
13704;SDS011;6924;52.122;9.952;2023-09-18T07:52:53;4.07;;;2.47;;
13704;SDS011;6924;52.122;9.952;2023-09-18T07:55:20;2.83;;;2.50;;
13704;SDS011;6924;52.122;9.952;2023-09-18T07:57:48;2.57;;;2.27;;
13704;SDS011;6924;52.122;9.952;2023-09-18T08:00:14;2.53;;;2.23;;
13704;SDS011;6924;52.122;9.952;2023-09-18T08:02:42;2.70;;;2.50;;
13704;SDS011;6924;52.122;9.952;2023-09-18T08:05:09;2.80;;;2.03;;
13704;SDS011;6924;52.122;9.952;2023-09-18T08:07:35;2.60;;;2.40;;
13704;SDS011;6924;52.122;9.952;2023-09-18T08:10:02;5.00;;;2.47;;
13704;SDS011;6924;52.122;9.952;2023-09-18T08:12:31;2.40;;;2.17;;
13704;SDS011;6924;52.122;9.952;2023-09-18T08:14:59;8.43;;;2.83;;
13704;SDS011;6924;52.122;9.952;2023-09-18T08:17:25;4.70;;;2.70;;
13704;SDS011;6924;52.122;9.952;2023-09-18T08:19:52;4.90;;;2.70;;
13704;SDS011;6924;52.122;9.952;2023-09-18T08:22:19;4.27;;;2.27;;
13704;SDS011;6924;52.122;9.952;2023-09-18T08:24:46;2.97;;;2.50;;
13704;SDS011;6924;52.122;9.952;2023-09-18T08:27:13;3.83;;;2.40;;
13704;SDS011;6924;52.122;9.952;2023-09-18T08:29:41;4.97;;;2.80;;
13704;SDS011;6924;52.122;9.952;2023-09-18T08:32:09;4.67;;;2.83;;
13704;SDS011;6924;52.122;9.952;2023-09-18T08:34:36;4.87;;;2.37;;
13704;SDS011;6924;52.122;9.952;2023-09-18T08:37:02;2.90;;;2.13;;
13704;SDS011;6924;52.122;9.952;2023-09-18T08:39:30;3.20;;;2.30;;
13704;SDS011;6924;52.122;9.952;2023-09-18T08:41:58;2.43;;;1.80;;
13704;SDS011;6924;52.122;9.952;2023-09-18T08:44:26;3.70;;;2.03;;
13704;SDS011;6924;52.122;9.952;2023-09-18T08:46:53;5.17;;;3.13;;
13704;SDS011;6924;52.122;9.952;2023-09-18T08:49:22;4.63;;;2.77;;
13704;SDS011;6924;52.122;9.952;2023-09-18T08:51:49;4.80;;;2.43;;
13704;SDS011;6924;52.122;9.952;2023-09-18T08:54:16;4.00;;;2.50;;
13704;SDS011;6924;52.122;9.952;2023-09-18T08:56:43;4.30;;;3.03;;
13704;SDS011;6924;52.122;9.952;2023-09-18T08:59:10;5.17;;;2.00;;
13704;SDS011;6924;52.122;9.952;2023-09-18T09:01:38;3.07;;;2.73;;
13704;SDS011;6924;52.122;9.952;2023-09-18T09:04:05;3.23;;;2.63;;
13704;SDS011;6924;52.122;9.952;2023-09-18T09:06:33;3.50;;;2.00;;
13704;SDS011;6924;52.122;9.952;2023-09-18T09:09:01;4.07;;;2.30;;
13704;SDS011;6924;52.122;9.952;2023-09-18T09:11:27;2.50;;;2.20;;
13704;SDS011;6924;52.122;9.952;2023-09-18T09:14:08;7.27;;;1.93;;
13704;SDS011;6924;52.122;9.952;2023-09-18T09:16:38;5.30;;;2.20;;
13704;SDS011;6924;52.122;9.952;2023-09-18T09:19:05;4.30;;;2.37;;
13704;SDS011;6924;52.122;9.952;2023-09-18T09:21:40;3.67;;;2.20;;
13704;SDS011;6924;52.122;9.952;2023-09-18T09:24:09;2.53;;;1.70;;
13704;SDS011;6924;52.122;9.952;2023-09-18T09:26:39;4.50;;;2.00;;
13704;SDS011;6924;52.122;9.952;2023-09-18T09:29:15;2.70;;;2.20;;
13704;SDS011;6924;52.122;9.952;2023-09-18T09:31:43;2.33;;;1.83;;
13704;SDS011;6924;52.122;9.952;2023-09-18T09:34:11;3.60;;;2.53;;
13704;SDS011;6924;52.122;9.952;2023-09-18T09:36:52;2.27;;;1.90;;
13704;SDS011;6924;52.122;9.952;2023-09-18T09:39:19;4.83;;;1.87;;
13704;SDS011;6924;52.122;9.952;2023-09-18T09:41:50;2.93;;;2.07;;
13704;SDS011;6924;52.122;9.952;2023-09-18T09:44:17;2.70;;;1.63;;
13704;SDS011;6924;52.122;9.952;2023-09-18T09:46:46;3.97;;;1.87;;
13704;SDS011;6924;52.122;9.952;2023-09-18T09:49:13;4.43;;;2.20;;
13704;SDS011;6924;52.122;9.952;2023-09-18T09:51:40;4.07;;;2.07;;
13704;SDS011;6924;52.122;9.952;2023-09-18T09:54:10;3.50;;;2.17;;
13704;SDS011;6924;52.122;9.952;2023-09-18T09:56:40;4.50;;;1.73;;
13704;SDS011;6924;52.122;9.952;2023-09-18T09:59:08;2.63;;;1.03;;
13704;SDS011;6924;52.122;9.952;2023-09-18T10:01:36;4.30;;;2.03;;
13704;SDS011;6924;52.122;9.952;2023-09-18T10:04:05;3.63;;;1.70;;
13704;SDS011;6924;52.122;9.952;2023-09-18T10:06:35;3.50;;;1.63;;
13704;SDS011;6924;52.122;9.952;2023-09-18T10:09:03;2.87;;;1.63;;
13704;SDS011;6924;52.122;9.952;2023-09-18T10:11:31;5.37;;;1.60;;
13704;SDS011;6924;52.122;9.952;2023-09-18T10:14:02;3.03;;;1.90;;
13704;SDS011;6924;52.122;9.952;2023-09-18T10:16:36;4.60;;;1.73;;
13704;SDS011;6924;52.122;9.952;2023-09-18T10:19:07;5.07;;;1.87;;
13704;SDS011;6924;52.122;9.952;2023-09-18T10:21:38;2.57;;;1.50;;
13704;SDS011;6924;52.122;9.952;2023-09-18T10:24:14;1.80;;;1.30;;
13704;SDS011;6924;52.122;9.952;2023-09-18T10:26:54;4.77;;;1.83;;
13704;SDS011;6924;52.122;9.952;2023-09-18T10:29:23;2.70;;;1.50;;
13704;SDS011;6924;52.122;9.952;2023-09-18T10:31:50;7.37;;;1.63;;
13704;SDS011;6924;52.122;9.952;2023-09-18T10:34:17;2.13;;;1.43;;
13704;SDS011;6924;52.122;9.952;2023-09-18T10:36:44;4.07;;;1.27;;
13704;SDS011;6924;52.122;9.952;2023-09-18T10:39:13;3.37;;;1.77;;
13704;SDS011;6924;52.122;9.952;2023-09-18T10:41:46;2.07;;;1.67;;
13704;SDS011;6924;52.122;9.952;2023-09-18T10:44:13;1.80;;;1.20;;
13704;SDS011;6924;52.122;9.952;2023-09-18T10:46:40;4.33;;;1.47;;
13704;SDS011;6924;52.122;9.952;2023-09-18T10:49:06;5.50;;;1.70;;
13704;SDS011;6924;52.122;9.952;2023-09-18T10:51:33;2.23;;;1.20;;
13704;SDS011;6924;52.122;9.952;2023-09-18T10:53:59;3.27;;;1.30;;
13704;SDS011;6924;52.122;9.952;2023-09-18T10:56:28;3.00;;;1.50;;
13704;SDS011;6924;52.122;9.952;2023-09-18T10:58:59;3.67;;;1.70;;
13704;SDS011;6924;52.122;9.952;2023-09-18T11:01:28;2.73;;;1.47;;
13704;SDS011;6924;52.122;9.952;2023-09-18T11:03:57;3.13;;;1.57;;
13704;SDS011;6924;52.122;9.952;2023-09-18T11:06:26;3.57;;;1.40;;
13704;SDS011;6924;52.122;9.952;2023-09-18T11:08:58;2.70;;;1.60;;
13704;SDS011;6924;52.122;9.952;2023-09-18T11:11:29;2.57;;;1.33;;
13704;SDS011;6924;52.122;9.952;2023-09-18T11:14:00;2.03;;;1.20;;
13704;SDS011;6924;52.122;9.952;2023-09-18T11:16:35;2.17;;;1.20;;
13704;SDS011;6924;52.122;9.952;2023-09-18T11:19:10;1.77;;;1.30;;
13704;SDS011;6924;52.122;9.952;2023-09-18T11:21:39;3.60;;;2.00;;
13704;SDS011;6924;52.122;9.952;2023-09-18T11:24:06;1.93;;;1.20;;
13704;SDS011;6924;52.122;9.952;2023-09-18T11:26:36;3.77;;;1.40;;
13704;SDS011;6924;52.122;9.952;2023-09-18T11:29:05;2.40;;;1.40;;
13704;SDS011;6924;52.122;9.952;2023-09-18T11:31:44;3.67;;;1.30;;
13704;SDS011;6924;52.122;9.952;2023-09-18T11:34:15;3.47;;;1.20;;
13704;SDS011;6924;52.122;9.952;2023-09-18T11:36:47;1.93;;;1.13;;
13704;SDS011;6924;52.122;9.952;2023-09-18T11:39:32;2.63;;;1.30;;
13704;SDS011;6924;52.122;9.952;2023-09-18T11:42:06;1.37;;;1.17;;
13704;SDS011;6924;52.122;9.952;2023-09-18T11:44:35;2.10;;;1.10;;
13704;SDS011;6924;52.122;9.952;2023-09-18T11:47:06;1.87;;;1.20;;
13704;SDS011;6924;52.122;9.952;2023-09-18T11:49:37;2.07;;;1.10;;
13704;SDS011;6924;52.122;9.952;2023-09-18T11:52:06;1.77;;;1.17;;
13704;SDS011;6924;52.122;9.952;2023-09-18T11:54:33;1.27;;;1.00;;
13704;SDS011;6924;52.122;9.952;2023-09-18T11:57:02;3.13;;;1.53;;
13704;SDS011;6924;52.122;9.952;2023-09-18T11:59:36;3.73;;;1.00;;
13704;SDS011;6924;52.122;9.952;2023-09-18T12:02:03;1.07;;;1.00;;
13704;SDS011;6924;52.122;9.952;2023-09-18T12:04:33;2.00;;;0.90;;
13704;SDS011;6924;52.122;9.952;2023-09-18T12:07:00;2.77;;;1.10;;
13704;SDS011;6924;52.122;9.952;2023-09-18T12:09:28;2.33;;;1.00;;
13704;SDS011;6924;52.122;9.952;2023-09-18T12:11:55;2.33;;;1.40;;
13704;SDS011;6924;52.122;9.952;2023-09-18T12:14:22;1.73;;;1.30;;
13704;SDS011;6924;52.122;9.952;2023-09-18T12:16:50;2.67;;;1.43;;
13704;SDS011;6924;52.122;9.952;2023-09-18T12:19:18;1.70;;;1.10;;
13704;SDS011;6924;52.122;9.952;2023-09-18T12:21:45;2.23;;;1.00;;
13704;SDS011;6924;52.122;9.952;2023-09-18T12:24:13;1.63;;;1.03;;
13704;SDS011;6924;52.122;9.952;2023-09-18T12:26:40;3.60;;;1.10;;
13704;SDS011;6924;52.122;9.952;2023-09-18T12:29:07;2.47;;;1.30;;
13704;SDS011;6924;52.122;9.952;2023-09-18T12:31:35;1.77;;;1.20;;
13704;SDS011;6924;52.122;9.952;2023-09-18T12:34:03;1.37;;;1.27;;
13704;SDS011;6924;52.122;9.952;2023-09-18T12:36:32;1.13;;;1.00;;
13704;SDS011;6924;52.122;9.952;2023-09-18T12:38:59;2.80;;;1.20;;
13704;SDS011;6924;52.122;9.952;2023-09-18T12:41:26;3.20;;;1.20;;
13704;SDS011;6924;52.122;9.952;2023-09-18T12:43:53;0.83;;;0.70;;
13704;SDS011;6924;52.122;9.952;2023-09-18T12:46:20;5.57;;;1.13;;
13704;SDS011;6924;52.122;9.952;2023-09-18T12:48:47;6.23;;;1.63;;
13704;SDS011;6924;52.122;9.952;2023-09-18T12:51:15;1.10;;;1.00;;
13704;SDS011;6924;52.122;9.952;2023-09-18T12:53:47;0.90;;;0.73;;
13704;SDS011;6924;52.122;9.952;2023-09-18T12:56:14;1.97;;;1.17;;
13704;SDS011;6924;52.122;9.952;2023-09-18T12:58:41;3.37;;;0.80;;
13704;SDS011;6924;52.122;9.952;2023-09-18T13:01:09;1.53;;;1.03;;
13704;SDS011;6924;52.122;9.952;2023-09-18T13:03:41;1.73;;;1.00;;
13704;SDS011;6924;52.122;9.952;2023-09-18T13:06:08;1.67;;;0.97;;
13704;SDS011;6924;52.122;9.952;2023-09-18T13:08:38;2.07;;;0.90;;
13704;SDS011;6924;52.122;9.952;2023-09-18T13:11:04;1.03;;;0.90;;
13704;SDS011;6924;52.122;9.952;2023-09-18T13:13:31;2.53;;;0.93;;
13704;SDS011;6924;52.122;9.952;2023-09-18T13:15:59;3.00;;;0.83;;
13704;SDS011;6924;52.122;9.952;2023-09-18T13:18:26;2.00;;;1.07;;
13704;SDS011;6924;52.122;9.952;2023-09-18T13:20:53;4.53;;;1.10;;
13704;SDS011;6924;52.122;9.952;2023-09-18T13:23:19;2.60;;;1.30;;
13704;SDS011;6924;52.122;9.952;2023-09-18T13:25:47;1.97;;;1.20;;
13704;SDS011;6924;52.122;9.952;2023-09-18T13:28:13;6.40;;;1.10;;
13704;SDS011;6924;52.122;9.952;2023-09-18T13:30:41;3.80;;;1.17;;
13704;SDS011;6924;52.122;9.952;2023-09-18T13:33:08;2.80;;;0.93;;
13704;SDS011;6924;52.122;9.952;2023-09-18T13:35:36;3.03;;;1.27;;
13704;SDS011;6924;52.122;9.952;2023-09-18T13:38:04;2.37;;;1.20;;
13704;SDS011;6924;52.122;9.952;2023-09-18T13:40:31;2.90;;;1.07;;
13704;SDS011;6924;52.122;9.952;2023-09-18T13:42:59;1.67;;;1.07;;
13704;SDS011;6924;52.122;9.952;2023-09-18T13:45:26;4.27;;;1.27;;
13704;SDS011;6924;52.122;9.952;2023-09-18T13:47:52;2.57;;;1.00;;
13704;SDS011;6924;52.122;9.952;2023-09-18T13:50:19;2.07;;;1.10;;
13704;SDS011;6924;52.122;9.952;2023-09-18T13:52:45;3.53;;;0.87;;
13704;SDS011;6924;52.122;9.952;2023-09-18T13:55:12;2.77;;;1.10;;
13704;SDS011;6924;52.122;9.952;2023-09-18T13:57:39;6.73;;;1.13;;
13704;SDS011;6924;52.122;9.952;2023-09-18T14:00:08;1.63;;;0.87;;
13704;SDS011;6924;52.122;9.952;2023-09-18T14:02:37;1.37;;;0.90;;
13704;SDS011;6924;52.122;9.952;2023-09-18T14:05:04;1.97;;;1.17;;
13704;SDS011;6924;52.122;9.952;2023-09-18T14:07:31;1.30;;;1.20;;
13704;SDS011;6924;52.122;9.952;2023-09-18T14:09:58;2.97;;;1.03;;
13704;SDS011;6924;52.122;9.952;2023-09-18T14:12:28;3.50;;;1.40;;
13704;SDS011;6924;52.122;9.952;2023-09-18T14:14:55;1.60;;;0.87;;
13704;SDS011;6924;52.122;9.952;2023-09-18T14:17:23;2.40;;;0.93;;
13704;SDS011;6924;52.122;9.952;2023-09-18T14:19:49;1.73;;;0.73;;
13704;SDS011;6924;52.122;9.952;2023-09-18T14:22:17;1.37;;;0.83;;
13704;SDS011;6924;52.122;9.952;2023-09-18T14:24:43;4.17;;;1.57;;
13704;SDS011;6924;52.122;9.952;2023-09-18T14:27:11;0.97;;;0.80;;
13704;SDS011;6924;52.122;9.952;2023-09-18T14:29:37;2.23;;;1.50;;
13704;SDS011;6924;52.122;9.952;2023-09-18T14:32:04;2.60;;;1.10;;
13704;SDS011;6924;52.122;9.952;2023-09-18T14:34:34;1.40;;;1.20;;
13704;SDS011;6924;52.122;9.952;2023-09-18T14:37:01;1.77;;;1.10;;
13704;SDS011;6924;52.122;9.952;2023-09-18T14:39:29;1.40;;;1.10;;
13704;SDS011;6924;52.122;9.952;2023-09-18T14:41:55;1.30;;;0.70;;
13704;SDS011;6924;52.122;9.952;2023-09-18T14:44:22;3.57;;;1.20;;
13704;SDS011;6924;52.122;9.952;2023-09-18T14:46:50;2.80;;;1.30;;
13704;SDS011;6924;52.122;9.952;2023-09-18T14:49:18;1.27;;;1.07;;
13704;SDS011;6924;52.122;9.952;2023-09-18T14:51:45;3.23;;;0.90;;
13704;SDS011;6924;52.122;9.952;2023-09-18T14:54:12;1.63;;;0.87;;
13704;SDS011;6924;52.122;9.952;2023-09-18T14:56:40;2.80;;;0.90;;
13704;SDS011;6924;52.122;9.952;2023-09-18T14:59:06;2.00;;;1.00;;
13704;SDS011;6924;52.122;9.952;2023-09-18T15:01:33;2.17;;;1.00;;
13704;SDS011;6924;52.122;9.952;2023-09-18T15:04:00;2.47;;;1.00;;